Terminal Aerodrome Forecast
Issued by NWS

Home | Current Version | Previous Version | Graphics & Text | Print | Product List | Glossary On
Versions: 1 2 3 4 5 6 7 8 9 10 11 12 13
000
FTUS43 KGRB 012326
TAFMTW
TAF
KMTW 012326Z 0200/0224 35003KT P6SM SKC
     FM020600 00000KT 3SM BR SKC
      TEMPO 0208/0211 1SM BR
     FM021300 05007KT P6SM SKC
     FM022100 10007KT P6SM SKC=

USA.gov is the U.S. government's official web portal to all federal, state and local government web resources and services.